Lac Du Flambeau, Wisconsin
Current Conditions -  °F | °C
As of 7:15 PM on Tuesday 27 Jan 2015 (Local Time) from KARV Reporting Station
Overcast Overcast  
Wind Chill: 24°   Ceiling: 1400
Heat Index: 24°   Visibility: 10mi
Dew Point: 20°   Wind: 3mph
Humidity: 85%   Direction: 190°S
Pressure: 30.14"   Gusts: NA
Location:  45.97°N, 89.89°W
Report Text: KARV 280115Z AUTO 19003KT 10SM OVC014 M04/M06 A3014 RMK AO2 T10431065
Loading
Personal Weather Stations






























Interactive Weather Map New forecast layout! Learn more

10-Day Weather Forecast

Advertisements
Track Severe Weather on mobile